sensor_id;sensor_type;location;lat;lon;timestamp;P1;durP1;ratioP1;P2;durP2;ratioP2
52534;SDS011;38443;53.164;5.802;2022-07-22T00:02:00;7.10;;;2.63;;
52534;SDS011;38443;53.164;5.802;2022-07-22T00:04:26;7.00;;;2.70;;
52534;SDS011;38443;53.164;5.802;2022-07-22T00:06:52;8.98;;;2.40;;
52534;SDS011;38443;53.164;5.802;2022-07-22T00:09:17;8.85;;;3.10;;
52534;SDS011;38443;53.164;5.802;2022-07-22T00:11:43;8.23;;;2.50;;
52534;SDS011;38443;53.164;5.802;2022-07-22T00:14:08;7.40;;;2.70;;
52534;SDS011;38443;53.164;5.802;2022-07-22T00:16:33;6.32;;;2.80;;
52534;SDS011;38443;53.164;5.802;2022-07-22T00:18:59;5.25;;;2.58;;
52534;SDS011;38443;53.164;5.802;2022-07-22T00:21:24;6.55;;;2.47;;
52534;SDS011;38443;53.164;5.802;2022-07-22T00:23:49;6.57;;;2.67;;
52534;SDS011;38443;53.164;5.802;2022-07-22T00:26:15;7.00;;;2.83;;
52534;SDS011;38443;53.164;5.802;2022-07-22T00:28:40;10.77;;;2.90;;
52534;SDS011;38443;53.164;5.802;2022-07-22T00:31:06;6.20;;;2.45;;
52534;SDS011;38443;53.164;5.802;2022-07-22T00:33:31;6.47;;;2.50;;
52534;SDS011;38443;53.164;5.802;2022-07-22T00:35:57;8.90;;;2.95;;
52534;SDS011;38443;53.164;5.802;2022-07-22T00:38:22;4.18;;;2.50;;
52534;SDS011;38443;53.164;5.802;2022-07-22T00:40:47;10.40;;;3.25;;
52534;SDS011;38443;53.164;5.802;2022-07-22T00:43:13;8.25;;;2.55;;
52534;SDS011;38443;53.164;5.802;2022-07-22T00:45:38;10.65;;;2.67;;
52534;SDS011;38443;53.164;5.802;2022-07-22T00:48:04;7.65;;;2.80;;
52534;SDS011;38443;53.164;5.802;2022-07-22T00:50:30;6.63;;;2.58;;
52534;SDS011;38443;53.164;5.802;2022-07-22T00:52:55;6.68;;;2.60;;
52534;SDS011;38443;53.164;5.802;2022-07-22T00:55:20;6.55;;;2.88;;
52534;SDS011;38443;53.164;5.802;2022-07-22T00:57:46;8.65;;;2.95;;
52534;SDS011;38443;53.164;5.802;2022-07-22T01:00:13;4.95;;;2.60;;
52534;SDS011;38443;53.164;5.802;2022-07-22T01:02:41;8.00;;;2.90;;
52534;SDS011;38443;53.164;5.802;2022-07-22T01:05:07;6.47;;;2.45;;
52534;SDS011;38443;53.164;5.802;2022-07-22T01:07:32;6.20;;;2.55;;
52534;SDS011;38443;53.164;5.802;2022-07-22T01:09:58;7.40;;;2.60;;
52534;SDS011;38443;53.164;5.802;2022-07-22T01:12:23;6.82;;;2.45;;
52534;SDS011;38443;53.164;5.802;2022-07-22T01:14:49;6.35;;;2.35;;
52534;SDS011;38443;53.164;5.802;2022-07-22T01:17:14;4.90;;;2.60;;
52534;SDS011;38443;53.164;5.802;2022-07-22T01:19:39;6.80;;;2.90;;
52534;SDS011;38443;53.164;5.802;2022-07-22T01:22:05;5.88;;;2.78;;
52534;SDS011;38443;53.164;5.802;2022-07-22T01:24:31;7.95;;;3.00;;
52534;SDS011;38443;53.164;5.802;2022-07-22T01:26:57;6.70;;;2.80;;
52534;SDS011;38443;53.164;5.802;2022-07-22T01:29:23;16.02;;;3.55;;
52534;SDS011;38443;53.164;5.802;2022-07-22T01:31:48;6.93;;;3.03;;
52534;SDS011;38443;53.164;5.802;2022-07-22T01:34:14;8.18;;;3.25;;
52534;SDS011;38443;53.164;5.802;2022-07-22T01:36:39;7.03;;;2.97;;
52534;SDS011;38443;53.164;5.802;2022-07-22T01:39:04;7.65;;;2.72;;
52534;SDS011;38443;53.164;5.802;2022-07-22T01:41:30;5.85;;;2.83;;
52534;SDS011;38443;53.164;5.802;2022-07-22T01:43:55;5.63;;;3.05;;
52534;SDS011;38443;53.164;5.802;2022-07-22T01:46:21;6.03;;;2.80;;
52534;SDS011;38443;53.164;5.802;2022-07-22T01:48:48;6.78;;;2.97;;
52534;SDS011;38443;53.164;5.802;2022-07-22T01:51:13;7.18;;;3.10;;
52534;SDS011;38443;53.164;5.802;2022-07-22T01:53:38;6.35;;;2.92;;
52534;SDS011;38443;53.164;5.802;2022-07-22T01:56:04;7.68;;;3.20;;
52534;SDS011;38443;53.164;5.802;2022-07-22T01:58:29;4.55;;;2.50;;
52534;SDS011;38443;53.164;5.802;2022-07-22T02:00:55;5.40;;;2.55;;
52534;SDS011;38443;53.164;5.802;2022-07-22T02:03:20;6.88;;;2.58;;
52534;SDS011;38443;53.164;5.802;2022-07-22T02:05:46;7.72;;;3.17;;
52534;SDS011;38443;53.164;5.802;2022-07-22T02:08:11;5.43;;;2.70;;
52534;SDS011;38443;53.164;5.802;2022-07-22T02:10:38;7.85;;;2.83;;
52534;SDS011;38443;53.164;5.802;2022-07-22T02:13:04;7.80;;;2.78;;
52534;SDS011;38443;53.164;5.802;2022-07-22T02:15:30;6.25;;;2.70;;
52534;SDS011;38443;53.164;5.802;2022-07-22T02:17:55;7.88;;;2.83;;
52534;SDS011;38443;53.164;5.802;2022-07-22T02:20:21;6.53;;;2.67;;
52534;SDS011;38443;53.164;5.802;2022-07-22T02:22:46;7.43;;;3.22;;
52534;SDS011;38443;53.164;5.802;2022-07-22T02:25:12;5.88;;;2.92;;
52534;SDS011;38443;53.164;5.802;2022-07-22T02:27:38;8.55;;;2.83;;
52534;SDS011;38443;53.164;5.802;2022-07-22T02:30:05;5.32;;;2.70;;
52534;SDS011;38443;53.164;5.802;2022-07-22T02:32:31;9.05;;;3.20;;
52534;SDS011;38443;53.164;5.802;2022-07-22T02:34:56;9.40;;;3.17;;
52534;SDS011;38443;53.164;5.802;2022-07-22T02:37:22;7.18;;;3.15;;
52534;SDS011;38443;53.164;5.802;2022-07-22T02:39:47;8.55;;;3.15;;
52534;SDS011;38443;53.164;5.802;2022-07-22T02:42:14;6.20;;;2.72;;
52534;SDS011;38443;53.164;5.802;2022-07-22T02:44:39;7.15;;;2.95;;
52534;SDS011;38443;53.164;5.802;2022-07-22T02:47:05;5.00;;;2.60;;
52534;SDS011;38443;53.164;5.802;2022-07-22T02:49:33;5.82;;;2.72;;
52534;SDS011;38443;53.164;5.802;2022-07-22T02:51:59;5.82;;;2.78;;
52534;SDS011;38443;53.164;5.802;2022-07-22T02:54:24;4.65;;;2.20;;
52534;SDS011;38443;53.164;5.802;2022-07-22T02:56:49;4.93;;;3.08;;
52534;SDS011;38443;53.164;5.802;2022-07-22T02:59:15;6.93;;;2.55;;
52534;SDS011;38443;53.164;5.802;2022-07-22T03:01:40;6.18;;;2.60;;
52534;SDS011;38443;53.164;5.802;2022-07-22T03:04:06;5.82;;;2.28;;
52534;SDS011;38443;53.164;5.802;2022-07-22T03:06:31;7.72;;;2.78;;
52534;SDS011;38443;53.164;5.802;2022-07-22T03:08:57;5.30;;;2.67;;
52534;SDS011;38443;53.164;5.802;2022-07-22T03:11:22;4.88;;;2.30;;
52534;SDS011;38443;53.164;5.802;2022-07-22T03:13:47;4.05;;;2.10;;
52534;SDS011;38443;53.164;5.802;2022-07-22T03:16:13;4.60;;;2.20;;
52534;SDS011;38443;53.164;5.802;2022-07-22T03:18:38;3.90;;;2.20;;
52534;SDS011;38443;53.164;5.802;2022-07-22T03:21:04;5.00;;;2.40;;
52534;SDS011;38443;53.164;5.802;2022-07-22T03:23:29;7.88;;;2.40;;
52534;SDS011;38443;53.164;5.802;2022-07-22T03:25:55;5.90;;;2.60;;
52534;SDS011;38443;53.164;5.802;2022-07-22T03:28:21;4.43;;;2.20;;
52534;SDS011;38443;53.164;5.802;2022-07-22T03:30:47;5.43;;;2.30;;
52534;SDS011;38443;53.164;5.802;2022-07-22T03:33:13;6.63;;;2.40;;
52534;SDS011;38443;53.164;5.802;2022-07-22T03:35:38;4.80;;;2.90;;
52534;SDS011;38443;53.164;5.802;2022-07-22T03:38:03;4.43;;;2.63;;
52534;SDS011;38443;53.164;5.802;2022-07-22T03:40:29;5.65;;;2.78;;
52534;SDS011;38443;53.164;5.802;2022-07-22T03:42:54;3.70;;;2.30;;
52534;SDS011;38443;53.164;5.802;2022-07-22T03:45:19;5.40;;;2.67;;
52534;SDS011;38443;53.164;5.802;2022-07-22T03:47:45;7.40;;;2.70;;
52534;SDS011;38443;53.164;5.802;2022-07-22T03:50:10;4.45;;;2.40;;
52534;SDS011;38443;53.164;5.802;2022-07-22T03:52:36;6.78;;;2.88;;
52534;SDS011;38443;53.164;5.802;2022-07-22T03:55:01;4.45;;;2.30;;
52534;SDS011;38443;53.164;5.802;2022-07-22T03:57:27;7.20;;;3.38;;
52534;SDS011;38443;53.164;5.802;2022-07-22T03:59:54;4.10;;;2.83;;
52534;SDS011;38443;53.164;5.802;2022-07-22T04:02:19;8.60;;;2.70;;
52534;SDS011;38443;53.164;5.802;2022-07-22T04:04:45;7.47;;;2.47;;
52534;SDS011;38443;53.164;5.802;2022-07-22T04:07:10;4.13;;;2.38;;
52534;SDS011;38443;53.164;5.802;2022-07-22T04:09:35;6.22;;;2.58;;
52534;SDS011;38443;53.164;5.802;2022-07-22T04:12:03;6.43;;;2.50;;
52534;SDS011;38443;53.164;5.802;2022-07-22T04:14:29;4.63;;;3.00;;
52534;SDS011;38443;53.164;5.802;2022-07-22T04:16:54;9.35;;;3.42;;
52534;SDS011;38443;53.164;5.802;2022-07-22T04:19:19;5.30;;;2.25;;
52534;SDS011;38443;53.164;5.802;2022-07-22T04:21:45;7.28;;;2.50;;
52534;SDS011;38443;53.164;5.802;2022-07-22T04:24:10;5.65;;;2.95;;
52534;SDS011;38443;53.164;5.802;2022-07-22T04:26:35;5.38;;;2.70;;
52534;SDS011;38443;53.164;5.802;2022-07-22T04:29:01;6.57;;;2.25;;
52534;SDS011;38443;53.164;5.802;2022-07-22T04:31:27;6.22;;;2.10;;
52534;SDS011;38443;53.164;5.802;2022-07-22T04:33:53;7.03;;;2.50;;
52534;SDS011;38443;53.164;5.802;2022-07-22T04:36:18;7.05;;;2.38;;
52534;SDS011;38443;53.164;5.802;2022-07-22T04:38:43;6.80;;;2.45;;
52534;SDS011;38443;53.164;5.802;2022-07-22T04:41:09;8.27;;;3.25;;
52534;SDS011;38443;53.164;5.802;2022-07-22T04:43:35;4.80;;;2.20;;
52534;SDS011;38443;53.164;5.802;2022-07-22T04:46:01;5.07;;;2.42;;
52534;SDS011;38443;53.164;5.802;2022-07-22T04:48:26;6.05;;;2.45;;
52534;SDS011;38443;53.164;5.802;2022-07-22T04:50:51;10.30;;;2.63;;
52534;SDS011;38443;53.164;5.802;2022-07-22T04:53:17;4.35;;;2.80;;
52534;SDS011;38443;53.164;5.802;2022-07-22T04:55:42;4.38;;;2.35;;
52534;SDS011;38443;53.164;5.802;2022-07-22T04:58:07;8.63;;;3.58;;
52534;SDS011;38443;53.164;5.802;2022-07-22T05:00:33;7.22;;;2.95;;
52534;SDS011;38443;53.164;5.802;2022-07-22T05:02:58;4.68;;;2.53;;
52534;SDS011;38443;53.164;5.802;2022-07-22T05:05:24;6.88;;;3.15;;
52534;SDS011;38443;53.164;5.802;2022-07-22T05:07:49;8.07;;;3.85;;
52534;SDS011;38443;53.164;5.802;2022-07-22T05:10:15;7.07;;;2.63;;
52534;SDS011;38443;53.164;5.802;2022-07-22T05:12:42;4.43;;;2.15;;
52534;SDS011;38443;53.164;5.802;2022-07-22T05:15:07;13.80;;;2.70;;
52534;SDS011;38443;53.164;5.802;2022-07-22T05:17:33;3.47;;;2.40;;
52534;SDS011;38443;53.164;5.802;2022-07-22T05:20:01;5.35;;;2.50;;
52534;SDS011;38443;53.164;5.802;2022-07-22T05:22:28;5.53;;;2.50;;
52534;SDS011;38443;53.164;5.802;2022-07-22T05:24:54;6.32;;;2.70;;
52534;SDS011;38443;53.164;5.802;2022-07-22T05:27:19;3.92;;;2.60;;
52534;SDS011;38443;53.164;5.802;2022-07-22T05:29:56;6.25;;;2.55;;
52534;SDS011;38443;53.164;5.802;2022-07-22T05:32:22;9.40;;;3.00;;
52534;SDS011;38443;53.164;5.802;2022-07-22T05:34:47;5.05;;;3.05;;
52534;SDS011;38443;53.164;5.802;2022-07-22T05:37:13;6.43;;;3.03;;
52534;SDS011;38443;53.164;5.802;2022-07-22T05:39:40;11.30;;;5.70;;
52534;SDS011;38443;53.164;5.802;2022-07-22T05:42:07;4.57;;;3.40;;
52534;SDS011;38443;53.164;5.802;2022-07-22T05:44:32;6.22;;;2.63;;
52534;SDS011;38443;53.164;5.802;2022-07-22T05:46:57;4.75;;;3.10;;
52534;SDS011;38443;53.164;5.802;2022-07-22T05:49:24;9.65;;;3.25;;
52534;SDS011;38443;53.164;5.802;2022-07-22T05:51:51;5.53;;;2.50;;
52534;SDS011;38443;53.164;5.802;2022-07-22T05:54:17;6.32;;;2.70;;
52534;SDS011;38443;53.164;5.802;2022-07-22T05:56:43;7.55;;;2.60;;
52534;SDS011;38443;53.164;5.802;2022-07-22T05:59:08;6.00;;;2.53;;
52534;SDS011;38443;53.164;5.802;2022-07-22T06:01:33;7.97;;;3.05;;
52534;SDS011;38443;53.164;5.802;2022-07-22T06:03:59;5.72;;;2.78;;
52534;SDS011;38443;53.164;5.802;2022-07-22T06:06:24;6.90;;;2.70;;
52534;SDS011;38443;53.164;5.802;2022-07-22T06:08:49;9.15;;;2.95;;
52534;SDS011;38443;53.164;5.802;2022-07-22T06:11:15;6.18;;;2.72;;
52534;SDS011;38443;53.164;5.802;2022-07-22T06:13:40;5.97;;;2.30;;
52534;SDS011;38443;53.164;5.802;2022-07-22T06:16:06;8.00;;;3.50;;
52534;SDS011;38443;53.164;5.802;2022-07-22T06:18:32;11.85;;;7.07;;
52534;SDS011;38443;53.164;5.802;2022-07-22T06:20:57;4.78;;;2.80;;
52534;SDS011;38443;53.164;5.802;2022-07-22T06:23:23;7.22;;;2.80;;
52534;SDS011;38443;53.164;5.802;2022-07-22T06:25:49;4.82;;;2.72;;
52534;SDS011;38443;53.164;5.802;2022-07-22T06:28:14;6.55;;;2.72;;
52534;SDS011;38443;53.164;5.802;2022-07-22T06:30:39;5.50;;;2.40;;
52534;SDS011;38443;53.164;5.802;2022-07-22T06:33:10;5.50;;;2.50;;
52534;SDS011;38443;53.164;5.802;2022-07-22T06:35:38;3.25;;;2.45;;
52534;SDS011;38443;53.164;5.802;2022-07-22T06:38:05;5.50;;;2.28;;
52534;SDS011;38443;53.164;5.802;2022-07-22T06:40:30;10.80;;;2.53;;
52534;SDS011;38443;53.164;5.802;2022-07-22T06:42:56;6.05;;;2.58;;
52534;SDS011;38443;53.164;5.802;2022-07-22T06:45:21;4.20;;;2.17;;
52534;SDS011;38443;53.164;5.802;2022-07-22T06:47:46;4.13;;;1.98;;
52534;SDS011;38443;53.164;5.802;2022-07-22T06:50:14;5.60;;;1.90;;
52534;SDS011;38443;53.164;5.802;2022-07-22T06:52:40;4.75;;;2.38;;
52534;SDS011;38443;53.164;5.802;2022-07-22T06:55:07;6.88;;;2.20;;
52534;SDS011;38443;53.164;5.802;2022-07-22T06:57:35;5.15;;;2.38;;
52534;SDS011;38443;53.164;5.802;2022-07-22T07:00:01;3.83;;;2.10;;
52534;SDS011;38443;53.164;5.802;2022-07-22T07:02:28;6.20;;;2.05;;
52534;SDS011;38443;53.164;5.802;2022-07-22T07:04:54;5.88;;;2.10;;
52534;SDS011;38443;53.164;5.802;2022-07-22T07:07:19;4.07;;;1.85;;
52534;SDS011;38443;53.164;5.802;2022-07-22T07:09:46;5.47;;;1.92;;
52534;SDS011;38443;53.164;5.802;2022-07-22T07:12:11;4.40;;;1.67;;
52534;SDS011;38443;53.164;5.802;2022-07-22T07:14:38;8.10;;;2.00;;
52534;SDS011;38443;53.164;5.802;2022-07-22T07:17:06;6.82;;;2.30;;
52534;SDS011;38443;53.164;5.802;2022-07-22T07:19:33;3.92;;;2.10;;
52534;SDS011;38443;53.164;5.802;2022-07-22T07:22:02;5.70;;;1.83;;
52534;SDS011;38443;53.164;5.802;2022-07-22T07:24:27;2.40;;;1.83;;
52534;SDS011;38443;53.164;5.802;2022-07-22T07:26:53;3.13;;;1.80;;
52534;SDS011;38443;53.164;5.802;2022-07-22T07:29:38;8.30;;;2.20;;
52534;SDS011;38443;53.164;5.802;2022-07-22T07:32:19;4.95;;;1.60;;
52534;SDS011;38443;53.164;5.802;2022-07-22T07:35:01;4.85;;;2.42;;
52534;SDS011;38443;53.164;5.802;2022-07-22T07:37:30;3.42;;;2.25;;
52534;SDS011;38443;53.164;5.802;2022-07-22T07:39:56;6.68;;;1.80;;
52534;SDS011;38443;53.164;5.802;2022-07-22T07:42:23;5.38;;;2.05;;
52534;SDS011;38443;53.164;5.802;2022-07-22T07:44:49;3.60;;;2.00;;
52534;SDS011;38443;53.164;5.802;2022-07-22T07:47:14;4.05;;;1.70;;
52534;SDS011;38443;53.164;5.802;2022-07-22T07:49:45;3.42;;;1.92;;
52534;SDS011;38443;53.164;5.802;2022-07-22T07:52:12;8.48;;;2.20;;
52534;SDS011;38443;53.164;5.802;2022-07-22T07:54:38;4.22;;;1.75;;
52534;SDS011;38443;53.164;5.802;2022-07-22T07:57:07;6.57;;;2.13;;
52534;SDS011;38443;53.164;5.802;2022-07-22T07:59:35;4.07;;;1.67;;
52534;SDS011;38443;53.164;5.802;2022-07-22T08:02:01;4.50;;;1.77;;
52534;SDS011;38443;53.164;5.802;2022-07-22T08:04:26;2.55;;;1.23;;
52534;SDS011;38443;53.164;5.802;2022-07-22T08:06:52;3.42;;;1.77;;
52534;SDS011;38443;53.164;5.802;2022-07-22T08:09:18;3.85;;;1.60;;
52534;SDS011;38443;53.164;5.802;2022-07-22T08:11:43;4.68;;;1.40;;
52534;SDS011;38443;53.164;5.802;2022-07-22T08:14:08;3.67;;;1.38;;
52534;SDS011;38443;53.164;5.802;2022-07-22T08:16:34;2.50;;;1.25;;
52534;SDS011;38443;53.164;5.802;2022-07-22T08:19:00;4.68;;;1.52;;
52534;SDS011;38443;53.164;5.802;2022-07-22T08:21:25;3.80;;;1.48;;
52534;SDS011;38443;53.164;5.802;2022-07-22T08:23:51;2.63;;;1.50;;
52534;SDS011;38443;53.164;5.802;2022-07-22T08:26:17;4.63;;;1.88;;
52534;SDS011;38443;53.164;5.802;2022-07-22T08:28:42;2.85;;;1.20;;
52534;SDS011;38443;53.164;5.802;2022-07-22T08:31:09;2.05;;;1.17;;
52534;SDS011;38443;53.164;5.802;2022-07-22T08:33:34;2.42;;;1.30;;
52534;SDS011;38443;53.164;5.802;2022-07-22T08:36:03;3.35;;;1.95;;
52534;SDS011;38443;53.164;5.802;2022-07-22T08:38:28;4.05;;;2.13;;
52534;SDS011;38443;53.164;5.802;2022-07-22T08:40:55;2.40;;;1.30;;
52534;SDS011;38443;53.164;5.802;2022-07-22T08:43:22;4.20;;;1.45;;
52534;SDS011;38443;53.164;5.802;2022-07-22T08:46:09;1.95;;;1.10;;
52534;SDS011;38443;53.164;5.802;2022-07-22T08:48:42;2.63;;;1.40;;
52534;SDS011;38443;53.164;5.802;2022-07-22T08:51:09;5.05;;;2.28;;
52534;SDS011;38443;53.164;5.802;2022-07-22T08:53:35;2.70;;;1.50;;
52534;SDS011;38443;53.164;5.802;2022-07-22T08:56:00;3.65;;;1.60;;
52534;SDS011;38443;53.164;5.802;2022-07-22T08:58:26;4.32;;;1.40;;
52534;SDS011;38443;53.164;5.802;2022-07-22T09:03:29;3.55;;;1.58;;
52534;SDS011;38443;53.164;5.802;2022-07-22T09:05:55;7.40;;;1.70;;
52534;SDS011;38443;53.164;5.802;2022-07-22T09:08:20;1.70;;;1.20;;
52534;SDS011;38443;53.164;5.802;2022-07-22T09:10:46;1.65;;;1.30;;
52534;SDS011;38443;53.164;5.802;2022-07-22T09:13:13;6.68;;;1.05;;
52534;SDS011;38443;53.164;5.802;2022-07-22T09:15:47;3.03;;;1.30;;
52534;SDS011;38443;53.164;5.802;2022-07-22T09:18:15;5.10;;;2.40;;
52534;SDS011;38443;53.164;5.802;2022-07-22T09:20:40;4.38;;;1.50;;
52534;SDS011;38443;53.164;5.802;2022-07-22T09:23:15;2.75;;;0.98;;
52534;SDS011;38443;53.164;5.802;2022-07-22T09:25:45;1.55;;;1.25;;
52534;SDS011;38443;53.164;5.802;2022-07-22T09:28:12;1.67;;;1.00;;
52534;SDS011;38443;53.164;5.802;2022-07-22T09:30:40;5.22;;;1.15;;
52534;SDS011;38443;53.164;5.802;2022-07-22T09:33:16;4.15;;;1.40;;
52534;SDS011;38443;53.164;5.802;2022-07-22T09:35:42;3.70;;;1.30;;
52534;SDS011;38443;53.164;5.802;2022-07-22T09:38:09;1.42;;;1.17;;
52534;SDS011;38443;53.164;5.802;2022-07-22T09:40:40;2.42;;;1.13;;
52534;SDS011;38443;53.164;5.802;2022-07-22T09:43:14;3.53;;;1.10;;
52534;SDS011;38443;53.164;5.802;2022-07-22T09:45:46;2.10;;;1.25;;
52534;SDS011;38443;53.164;5.802;2022-07-22T09:48:13;2.75;;;1.60;;
52534;SDS011;38443;53.164;5.802;2022-07-22T09:50:39;3.47;;;1.77;;
52534;SDS011;38443;53.164;5.802;2022-07-22T09:53:04;2.50;;;1.50;;
52534;SDS011;38443;53.164;5.802;2022-07-22T09:55:30;3.60;;;1.50;;
52534;SDS011;38443;53.164;5.802;2022-07-22T09:57:57;4.82;;;2.78;;
52534;SDS011;38443;53.164;5.802;2022-07-22T10:00:26;4.82;;;2.47;;
52534;SDS011;38443;53.164;5.802;2022-07-22T10:02:57;4.20;;;1.55;;
52534;SDS011;38443;53.164;5.802;2022-07-22T10:05:27;2.67;;;1.35;;
52534;SDS011;38443;53.164;5.802;2022-07-22T10:07:55;3.78;;;1.80;;
52534;SDS011;38443;53.164;5.802;2022-07-22T10:10:24;2.53;;;1.40;;
52534;SDS011;38443;53.164;5.802;2022-07-22T10:12:53;2.55;;;1.30;;
52534;SDS011;38443;53.164;5.802;2022-07-22T10:15:20;2.75;;;1.30;;
52534;SDS011;38443;53.164;5.802;2022-07-22T10:17:47;3.38;;;1.40;;
52534;SDS011;38443;53.164;5.802;2022-07-22T10:20:20;1.73;;;1.10;;
52534;SDS011;38443;53.164;5.802;2022-07-22T10:22:57;1.52;;;1.10;;
52534;SDS011;38443;53.164;5.802;2022-07-22T10:25:24;2.40;;;1.23;;
52534;SDS011;38443;53.164;5.802;2022-07-22T10:30:29;1.27;;;1.13;;
52534;SDS011;38443;53.164;5.802;2022-07-22T10:39:09;3.28;;;1.38;;
52534;SDS011;38443;53.164;5.802;2022-07-22T10:41:37;2.28;;;1.25;;
52534;SDS011;38443;53.164;5.802;2022-07-22T10:44:04;1.75;;;1.38;;
52534;SDS011;38443;53.164;5.802;2022-07-22T10:49:27;1.23;;;1.08;;
52534;SDS011;38443;53.164;5.802;2022-07-22T10:52:12;1.13;;;1.00;;
52534;SDS011;38443;53.164;5.802;2022-07-22T10:57:41;2.00;;;1.02;;
52534;SDS011;38443;53.164;5.802;2022-07-22T11:00:07;1.55;;;1.10;;
52534;SDS011;38443;53.164;5.802;2022-07-22T11:02:33;3.05;;;1.40;;
52534;SDS011;38443;53.164;5.802;2022-07-22T11:05:00;3.22;;;1.02;;
52534;SDS011;38443;53.164;5.802;2022-07-22T11:07:26;2.65;;;1.33;;
52534;SDS011;38443;53.164;5.802;2022-07-22T11:09:54;1.63;;;1.50;;
52534;SDS011;38443;53.164;5.802;2022-07-22T11:12:33;3.38;;;1.52;;
52534;SDS011;38443;53.164;5.802;2022-07-22T11:15:00;2.50;;;1.35;;
52534;SDS011;38443;53.164;5.802;2022-07-22T11:17:27;1.73;;;1.20;;
52534;SDS011;38443;53.164;5.802;2022-07-22T11:19:52;3.03;;;1.40;;
52534;SDS011;38443;53.164;5.802;2022-07-22T11:22:18;4.35;;;1.40;;
52534;SDS011;38443;53.164;5.802;2022-07-22T11:24:47;2.08;;;1.30;;
52534;SDS011;38443;53.164;5.802;2022-07-22T11:27:14;2.47;;;1.40;;
52534;SDS011;38443;53.164;5.802;2022-07-22T11:29:41;3.28;;;1.30;;
52534;SDS011;38443;53.164;5.802;2022-07-22T11:32:11;2.25;;;1.50;;
52534;SDS011;38443;53.164;5.802;2022-07-22T11:34:40;1.95;;;1.40;;
52534;SDS011;38443;53.164;5.802;2022-07-22T11:37:07;2.70;;;1.42;;
52534;SDS011;38443;53.164;5.802;2022-07-22T11:39:34;1.77;;;1.40;;
52534;SDS011;38443;53.164;5.802;2022-07-22T11:42:00;2.20;;;1.65;;
52534;SDS011;38443;53.164;5.802;2022-07-22T11:44:27;2.90;;;1.73;;
52534;SDS011;38443;53.164;5.802;2022-07-22T11:46:55;2.78;;;1.48;;
52534;SDS011;38443;53.164;5.802;2022-07-22T11:49:23;1.92;;;1.40;;
52534;SDS011;38443;53.164;5.802;2022-07-22T11:51:50;3.60;;;1.63;;
52534;SDS011;38443;53.164;5.802;2022-07-22T11:54:16;2.55;;;1.50;;
52534;SDS011;38443;53.164;5.802;2022-07-22T11:56:42;3.45;;;1.75;;
52534;SDS011;38443;53.164;5.802;2022-07-22T11:59:07;4.20;;;1.85;;
52534;SDS011;38443;53.164;5.802;2022-07-22T12:01:37;3.40;;;1.65;;
52534;SDS011;38443;53.164;5.802;2022-07-22T12:04:12;3.60;;;1.85;;
52534;SDS011;38443;53.164;5.802;2022-07-22T12:06:42;3.97;;;1.80;;
52534;SDS011;38443;53.164;5.802;2022-07-22T12:09:15;3.80;;;1.90;;
52534;SDS011;38443;53.164;5.802;2022-07-22T12:11:46;3.15;;;1.95;;
52534;SDS011;38443;53.164;5.802;2022-07-22T12:14:17;4.32;;;1.90;;
52534;SDS011;38443;53.164;5.802;2022-07-22T12:17:05;3.85;;;1.80;;
52534;SDS011;38443;53.164;5.802;2022-07-22T12:22:09;2.78;;;1.80;;
52534;SDS011;38443;53.164;5.802;2022-07-22T12:24:45;3.78;;;1.58;;
52534;SDS011;38443;53.164;5.802;2022-07-22T12:27:22;3.60;;;1.85;;
52534;SDS011;38443;53.164;5.802;2022-07-22T12:29:48;3.42;;;1.63;;
52534;SDS011;38443;53.164;5.802;2022-07-22T12:34:42;2.88;;;1.50;;
52534;SDS011;38443;53.164;5.802;2022-07-22T12:40:04;3.03;;;1.80;;
52534;SDS011;38443;53.164;5.802;2022-07-22T12:42:36;4.90;;;1.90;;
52534;SDS011;38443;53.164;5.802;2022-07-22T12:45:12;4.90;;;1.55;;
52534;SDS011;38443;53.164;5.802;2022-07-22T12:50:17;2.42;;;1.77;;
52534;SDS011;38443;53.164;5.802;2022-07-22T12:52:52;2.40;;;1.70;;
52534;SDS011;38443;53.164;5.802;2022-07-22T12:55:39;2.88;;;1.70;;
52534;SDS011;38443;53.164;5.802;2022-07-22T12:58:09;3.15;;;1.70;;
52534;SDS011;38443;53.164;5.802;2022-07-22T13:00:36;3.25;;;1.80;;
52534;SDS011;38443;53.164;5.802;2022-07-22T13:03:04;3.25;;;1.80;;
52534;SDS011;38443;53.164;5.802;2022-07-22T13:05:30;3.25;;;1.70;;
52534;SDS011;38443;53.164;5.802;2022-07-22T13:07:56;2.47;;;1.73;;
52534;SDS011;38443;53.164;5.802;2022-07-22T13:10:22;3.22;;;1.60;;
52534;SDS011;38443;53.164;5.802;2022-07-22T13:12:48;3.65;;;1.50;;
52534;SDS011;38443;53.164;5.802;2022-07-22T13:15:14;3.92;;;1.65;;
52534;SDS011;38443;53.164;5.802;2022-07-22T13:17:40;5.10;;;1.77;;
52534;SDS011;38443;53.164;5.802;2022-07-22T13:20:06;4.65;;;1.70;;
52534;SDS011;38443;53.164;5.802;2022-07-22T13:22:32;2.55;;;1.67;;
52534;SDS011;38443;53.164;5.802;2022-07-22T13:24:58;3.22;;;1.90;;
52534;SDS011;38443;53.164;5.802;2022-07-22T13:27:24;2.17;;;1.58;;
52534;SDS011;38443;53.164;5.802;2022-07-22T13:29:50;3.10;;;1.73;;
52534;SDS011;38443;53.164;5.802;2022-07-22T13:32:15;4.25;;;1.42;;
52534;SDS011;38443;53.164;5.802;2022-07-22T13:34:40;4.05;;;1.83;;
52534;SDS011;38443;53.164;5.802;2022-07-22T13:37:06;4.10;;;1.92;;
52534;SDS011;38443;53.164;5.802;2022-07-22T13:39:31;3.88;;;1.70;;
52534;SDS011;38443;53.164;5.802;2022-07-22T13:41:57;4.03;;;1.65;;
52534;SDS011;38443;53.164;5.802;2022-07-22T13:44:22;2.95;;;1.70;;
52534;SDS011;38443;53.164;5.802;2022-07-22T13:46:47;3.85;;;1.90;;
52534;SDS011;38443;53.164;5.802;2022-07-22T13:49:14;3.22;;;1.67;;
52534;SDS011;38443;53.164;5.802;2022-07-22T13:51:39;2.78;;;1.50;;
52534;SDS011;38443;53.164;5.802;2022-07-22T13:54:05;3.75;;;1.58;;
52534;SDS011;38443;53.164;5.802;2022-07-22T13:56:33;2.83;;;1.90;;
52534;SDS011;38443;53.164;5.802;2022-07-22T13:58:59;2.28;;;1.75;;
52534;SDS011;38443;53.164;5.802;2022-07-22T14:01:25;4.40;;;1.77;;
52534;SDS011;38443;53.164;5.802;2022-07-22T14:03:51;3.72;;;1.65;;
52534;SDS011;38443;53.164;5.802;2022-07-22T14:06:16;5.13;;;1.90;;
52534;SDS011;38443;53.164;5.802;2022-07-22T14:08:42;2.45;;;1.85;;
52534;SDS011;38443;53.164;5.802;2022-07-22T14:11:07;7.20;;;2.10;;
52534;SDS011;38443;53.164;5.802;2022-07-22T14:13:33;1.80;;;1.45;;
52534;SDS011;38443;53.164;5.802;2022-07-22T14:15:58;2.53;;;1.60;;
52534;SDS011;38443;53.164;5.802;2022-07-22T14:18:43;5.05;;;1.83;;
52534;SDS011;38443;53.164;5.802;2022-07-22T14:21:09;4.30;;;1.70;;
52534;SDS011;38443;53.164;5.802;2022-07-22T14:23:34;2.35;;;1.33;;
52534;SDS011;38443;53.164;5.802;2022-07-22T14:25:59;8.52;;;1.77;;
52534;SDS011;38443;53.164;5.802;2022-07-22T14:28:25;3.53;;;1.58;;
52534;SDS011;38443;53.164;5.802;2022-07-22T14:30:50;3.25;;;2.05;;
52534;SDS011;38443;53.164;5.802;2022-07-22T14:33:15;3.47;;;1.80;;
52534;SDS011;38443;53.164;5.802;2022-07-22T14:35:41;2.45;;;1.58;;
52534;SDS011;38443;53.164;5.802;2022-07-22T14:38:06;5.07;;;1.73;;
52534;SDS011;38443;53.164;5.802;2022-07-22T14:40:31;2.75;;;1.42;;
52534;SDS011;38443;53.164;5.802;2022-07-22T14:42:57;2.63;;;1.40;;
52534;SDS011;38443;53.164;5.802;2022-07-22T14:45:22;1.75;;;1.40;;
52534;SDS011;38443;53.164;5.802;2022-07-22T14:47:48;2.75;;;1.58;;
52534;SDS011;38443;53.164;5.802;2022-07-22T14:50:13;5.75;;;2.15;;
52534;SDS011;38443;53.164;5.802;2022-07-22T14:52:38;3.25;;;1.70;;
52534;SDS011;38443;53.164;5.802;2022-07-22T14:55:04;2.50;;;1.30;;
52534;SDS011;38443;53.164;5.802;2022-07-22T14:57:29;2.58;;;1.77;;
52534;SDS011;38443;53.164;5.802;2022-07-22T14:59:55;3.25;;;1.60;;
52534;SDS011;38443;53.164;5.802;2022-07-22T15:02:20;4.20;;;1.60;;
52534;SDS011;38443;53.164;5.802;2022-07-22T15:04:45;3.72;;;1.60;;
52534;SDS011;38443;53.164;5.802;2022-07-22T15:07:11;3.22;;;1.80;;
52534;SDS011;38443;53.164;5.802;2022-07-22T15:09:36;4.53;;;1.75;;
52534;SDS011;38443;53.164;5.802;2022-07-22T15:12:02;4.70;;;3.05;;
52534;SDS011;38443;53.164;5.802;2022-07-22T15:14:27;4.03;;;1.63;;